sensor_id;sensor_type;location;lat;lon;timestamp;temperature;humidity
2002;DHT22;1003;48.002;7.788;2023-06-10T00:02:05;19.70;99.90
2002;DHT22;1003;48.002;7.788;2023-06-10T00:04:33;19.70;99.90
2002;DHT22;1003;48.002;7.788;2023-06-10T00:07:03;19.60;99.90
2002;DHT22;1003;48.002;7.788;2023-06-10T00:09:33;19.60;99.90
2002;DHT22;1003;48.002;7.788;2023-06-10T00:12:02;19.50;99.90
2002;DHT22;1003;48.002;7.788;2023-06-10T00:14:31;19.50;99.90
2002;DHT22;1003;48.002;7.788;2023-06-10T00:16:58;19.40;99.90
2002;DHT22;1003;48.002;7.788;2023-06-10T00:19:26;19.40;99.90
2002;DHT22;1003;48.002;7.788;2023-06-10T00:21:56;19.30;99.90
2002;DHT22;1003;48.002;7.788;2023-06-10T00:24:23;19.30;99.90
2002;DHT22;1003;48.002;7.788;2023-06-10T00:26:50;19.20;99.90
2002;DHT22;1003;48.002;7.788;2023-06-10T00:29:17;19.20;99.90
2002;DHT22;1003;48.002;7.788;2023-06-10T00:31:46;19.10;99.90
2002;DHT22;1003;48.002;7.788;2023-06-10T00:34:13;19.10;99.90
2002;DHT22;1003;48.002;7.788;2023-06-10T00:36:40;19.10;99.90
2002;DHT22;1003;48.002;7.788;2023-06-10T00:39:08;19.00;99.90
2002;DHT22;1003;48.002;7.788;2023-06-10T00:41:36;19.00;99.90
2002;DHT22;1003;48.002;7.788;2023-06-10T00:44:03;18.90;99.90
2002;DHT22;1003;48.002;7.788;2023-06-10T00:46:30;18.90;99.90
2002;DHT22;1003;48.002;7.788;2023-06-10T00:49:00;18.80;99.90
2002;DHT22;1003;48.002;7.788;2023-06-10T00:51:28;18.80;99.90
2002;DHT22;1003;48.002;7.788;2023-06-10T00:53:55;18.70;99.90
2002;DHT22;1003;48.002;7.788;2023-06-10T00:56:22;18.70;99.90
2002;DHT22;1003;48.002;7.788;2023-06-10T00:58:50;18.60;99.90
2002;DHT22;1003;48.002;7.788;2023-06-10T01:01:18;18.50;99.90
2002;DHT22;1003;48.002;7.788;2023-06-10T01:03:45;18.40;99.90
2002;DHT22;1003;48.002;7.788;2023-06-10T01:06:21;18.40;99.90
2002;DHT22;1003;48.002;7.788;2023-06-10T01:09:05;18.30;99.90
2002;DHT22;1003;48.002;7.788;2023-06-10T01:11:46;18.30;99.90
2002;DHT22;1003;48.002;7.788;2023-06-10T01:14:17;18.20;99.90
2002;DHT22;1003;48.002;7.788;2023-06-10T01:16:46;18.20;99.90
2002;DHT22;1003;48.002;7.788;2023-06-10T01:19:14;18.20;99.90
2002;DHT22;1003;48.002;7.788;2023-06-10T01:21:44;18.20;99.90
2002;DHT22;1003;48.002;7.788;2023-06-10T01:24:14;18.10;99.90
2002;DHT22;1003;48.002;7.788;2023-06-10T01:26:44;18.10;99.90
2002;DHT22;1003;48.002;7.788;2023-06-10T01:29:19;18.00;99.90
2002;DHT22;1003;48.002;7.788;2023-06-10T01:31:53;18.00;99.90
2002;DHT22;1003;48.002;7.788;2023-06-10T01:34:30;17.90;99.90
2002;DHT22;1003;48.002;7.788;2023-06-10T01:37:00;17.90;99.90
2002;DHT22;1003;48.002;7.788;2023-06-10T01:39:38;17.80;99.90
2002;DHT22;1003;48.002;7.788;2023-06-10T01:42:06;17.80;99.90
2002;DHT22;1003;48.002;7.788;2023-06-10T01:44:35;17.90;99.90
2002;DHT22;1003;48.002;7.788;2023-06-10T01:47:02;17.80;99.90
2002;DHT22;1003;48.002;7.788;2023-06-10T01:49:30;17.80;99.90
2002;DHT22;1003;48.002;7.788;2023-06-10T01:51:57;17.80;99.90
2002;DHT22;1003;48.002;7.788;2023-06-10T01:54:26;17.80;99.90
2002;DHT22;1003;48.002;7.788;2023-06-10T01:56:53;17.80;99.90
2002;DHT22;1003;48.002;7.788;2023-06-10T01:59:20;17.70;99.90
2002;DHT22;1003;48.002;7.788;2023-06-10T02:01:47;17.70;99.90
2002;DHT22;1003;48.002;7.788;2023-06-10T02:04:14;17.70;99.90
2002;DHT22;1003;48.002;7.788;2023-06-10T02:06:42;17.60;99.90
2002;DHT22;1003;48.002;7.788;2023-06-10T02:09:09;17.50;99.90
2002;DHT22;1003;48.002;7.788;2023-06-10T02:11:37;17.50;99.90
2002;DHT22;1003;48.002;7.788;2023-06-10T02:14:04;17.40;99.90
2002;DHT22;1003;48.002;7.788;2023-06-10T02:16:31;17.30;99.90
2002;DHT22;1003;48.002;7.788;2023-06-10T02:18:59;17.20;99.90
2002;DHT22;1003;48.002;7.788;2023-06-10T02:21:26;17.20;99.90
2002;DHT22;1003;48.002;7.788;2023-06-10T02:23:53;17.00;99.90
2002;DHT22;1003;48.002;7.788;2023-06-10T02:26:20;17.00;99.90
2002;DHT22;1003;48.002;7.788;2023-06-10T02:28:49;16.90;99.90
2002;DHT22;1003;48.002;7.788;2023-06-10T02:31:17;16.80;99.90
2002;DHT22;1003;48.002;7.788;2023-06-10T02:33:45;16.70;99.90
2002;DHT22;1003;48.002;7.788;2023-06-10T02:36:12;16.70;99.90
2002;DHT22;1003;48.002;7.788;2023-06-10T02:38:41;16.60;99.90
2002;DHT22;1003;48.002;7.788;2023-06-10T02:41:08;16.50;99.90
2002;DHT22;1003;48.002;7.788;2023-06-10T02:43:35;16.50;99.90
2002;DHT22;1003;48.002;7.788;2023-06-10T02:46:03;16.40;99.90
2002;DHT22;1003;48.002;7.788;2023-06-10T02:48:30;16.30;99.90
2002;DHT22;1003;48.002;7.788;2023-06-10T02:50:57;16.30;99.90
2002;DHT22;1003;48.002;7.788;2023-06-10T02:53:25;16.20;99.90
2002;DHT22;1003;48.002;7.788;2023-06-10T02:55:52;16.20;99.90
2002;DHT22;1003;48.002;7.788;2023-06-10T02:58:19;16.20;99.90
2002;DHT22;1003;48.002;7.788;2023-06-10T03:00:46;16.10;99.90
2002;DHT22;1003;48.002;7.788;2023-06-10T03:03:15;16.10;99.90
2002;DHT22;1003;48.002;7.788;2023-06-10T03:05:42;16.00;99.90
2002;DHT22;1003;48.002;7.788;2023-06-10T03:08:09;16.00;99.90
2002;DHT22;1003;48.002;7.788;2023-06-10T03:10:36;15.90;99.90
2002;DHT22;1003;48.002;7.788;2023-06-10T03:13:03;15.90;99.90
2002;DHT22;1003;48.002;7.788;2023-06-10T03:15:30;15.80;99.90
2002;DHT22;1003;48.002;7.788;2023-06-10T03:17:58;15.70;99.90
2002;DHT22;1003;48.002;7.788;2023-06-10T03:20:27;15.70;99.90
2002;DHT22;1003;48.002;7.788;2023-06-10T03:22:55;15.60;99.90
2002;DHT22;1003;48.002;7.788;2023-06-10T03:25:22;15.60;99.90
2002;DHT22;1003;48.002;7.788;2023-06-10T03:27:49;15.60;99.90
2002;DHT22;1003;48.002;7.788;2023-06-10T03:30:16;15.60;99.90
2002;DHT22;1003;48.002;7.788;2023-06-10T03:32:43;15.50;99.90
2002;DHT22;1003;48.002;7.788;2023-06-10T03:35:11;15.50;99.90
2002;DHT22;1003;48.002;7.788;2023-06-10T03:37:41;15.50;99.90
2002;DHT22;1003;48.002;7.788;2023-06-10T03:40:09;15.50;99.90
2002;DHT22;1003;48.002;7.788;2023-06-10T03:42:36;15.50;99.90
2002;DHT22;1003;48.002;7.788;2023-06-10T03:45:04;15.50;99.90
2002;DHT22;1003;48.002;7.788;2023-06-10T03:47:33;15.50;99.90
2002;DHT22;1003;48.002;7.788;2023-06-10T03:50:01;15.50;99.90
2002;DHT22;1003;48.002;7.788;2023-06-10T03:52:29;15.50;99.90
2002;DHT22;1003;48.002;7.788;2023-06-10T03:54:57;15.50;99.90
2002;DHT22;1003;48.002;7.788;2023-06-10T03:57:24;15.60;99.90
2002;DHT22;1003;48.002;7.788;2023-06-10T03:59:51;15.60;99.90
2002;DHT22;1003;48.002;7.788;2023-06-10T04:02:18;15.70;99.90
2002;DHT22;1003;48.002;7.788;2023-06-10T04:04:45;15.70;99.90
2002;DHT22;1003;48.002;7.788;2023-06-10T04:07:12;15.80;99.90
2002;DHT22;1003;48.002;7.788;2023-06-10T04:09:40;15.90;99.90
2002;DHT22;1003;48.002;7.788;2023-06-10T04:12:09;16.00;99.90
2002;DHT22;1003;48.002;7.788;2023-06-10T04:14:36;16.00;99.90
2002;DHT22;1003;48.002;7.788;2023-06-10T04:17:04;16.20;99.90
2002;DHT22;1003;48.002;7.788;2023-06-10T04:19:32;16.30;99.90
2002;DHT22;1003;48.002;7.788;2023-06-10T04:22:01;16.40;99.90
2002;DHT22;1003;48.002;7.788;2023-06-10T04:24:29;16.50;99.90
2002;DHT22;1003;48.002;7.788;2023-06-10T04:26:56;16.70;99.90
2002;DHT22;1003;48.002;7.788;2023-06-10T04:29:25;16.80;99.90
2002;DHT22;1003;48.002;7.788;2023-06-10T04:31:52;16.90;99.90
2002;DHT22;1003;48.002;7.788;2023-06-10T04:34:19;17.10;99.90
2002;DHT22;1003;48.002;7.788;2023-06-10T04:36:46;17.30;99.90
2002;DHT22;1003;48.002;7.788;2023-06-10T04:39:13;17.80;99.90
2002;DHT22;1003;48.002;7.788;2023-06-10T04:41:42;18.40;99.90
2002;DHT22;1003;48.002;7.788;2023-06-10T04:44:09;18.80;99.90
2002;DHT22;1003;48.002;7.788;2023-06-10T04:46:38;19.20;99.90
2002;DHT22;1003;48.002;7.788;2023-06-10T04:49:05;19.60;99.90
2002;DHT22;1003;48.002;7.788;2023-06-10T04:51:32;20.00;99.90
2002;DHT22;1003;48.002;7.788;2023-06-10T04:54:00;20.40;99.90
2002;DHT22;1003;48.002;7.788;2023-06-10T04:56:29;20.70;99.90
2002;DHT22;1003;48.002;7.788;2023-06-10T04:58:56;20.90;99.90
2002;DHT22;1003;48.002;7.788;2023-06-10T05:01:24;21.20;99.90
2002;DHT22;1003;48.002;7.788;2023-06-10T05:03:52;21.30;99.90
2002;DHT22;1003;48.002;7.788;2023-06-10T05:06:19;21.40;99.90
2002;DHT22;1003;48.002;7.788;2023-06-10T05:08:46;21.40;99.90
2002;DHT22;1003;48.002;7.788;2023-06-10T05:11:13;21.50;99.90
2002;DHT22;1003;48.002;7.788;2023-06-10T05:13:41;21.50;99.90
2002;DHT22;1003;48.002;7.788;2023-06-10T05:16:09;21.50;99.90
2002;DHT22;1003;48.002;7.788;2023-06-10T05:18:36;21.60;99.90
2002;DHT22;1003;48.002;7.788;2023-06-10T05:21:05;22.00;99.90
2002;DHT22;1003;48.002;7.788;2023-06-10T05:23:32;22.60;99.90
2002;DHT22;1003;48.002;7.788;2023-06-10T05:26:00;22.50;99.90
2002;DHT22;1003;48.002;7.788;2023-06-10T05:28:27;22.40;99.90
2002;DHT22;1003;48.002;7.788;2023-06-10T05:30:54;22.90;99.90
2002;DHT22;1003;48.002;7.788;2023-06-10T05:33:21;23.20;99.90
2002;DHT22;1003;48.002;7.788;2023-06-10T05:35:48;23.50;99.90
2002;DHT22;1003;48.002;7.788;2023-06-10T05:38:16;23.50;99.90
2002;DHT22;1003;48.002;7.788;2023-06-10T05:40:43;23.30;99.90
2002;DHT22;1003;48.002;7.788;2023-06-10T05:43:10;23.50;99.90
2002;DHT22;1003;48.002;7.788;2023-06-10T05:45:37;23.60;99.90
2002;DHT22;1003;48.002;7.788;2023-06-10T05:48:05;23.40;99.90
2002;DHT22;1003;48.002;7.788;2023-06-10T05:50:34;23.60;99.90
2002;DHT22;1003;48.002;7.788;2023-06-10T05:53:04;23.70;99.90
2002;DHT22;1003;48.002;7.788;2023-06-10T05:55:33;23.80;99.90
2002;DHT22;1003;48.002;7.788;2023-06-10T05:58:01;23.90;99.90
2002;DHT22;1003;48.002;7.788;2023-06-10T06:00:28;23.90;99.90
2002;DHT22;1003;48.002;7.788;2023-06-10T06:02:55;23.80;99.90
2002;DHT22;1003;48.002;7.788;2023-06-10T06:05:24;23.80;99.90
2002;DHT22;1003;48.002;7.788;2023-06-10T06:07:51;23.70;99.90
2002;DHT22;1003;48.002;7.788;2023-06-10T06:10:18;23.70;99.90
2002;DHT22;1003;48.002;7.788;2023-06-10T06:12:47;23.80;99.90
2002;DHT22;1003;48.002;7.788;2023-06-10T06:15:14;23.90;99.90
2002;DHT22;1003;48.002;7.788;2023-06-10T06:17:41;24.20;99.90
2002;DHT22;1003;48.002;7.788;2023-06-10T06:20:08;24.30;99.90
2002;DHT22;1003;48.002;7.788;2023-06-10T06:22:36;24.60;99.90
2002;DHT22;1003;48.002;7.788;2023-06-10T06:25:03;24.70;99.90
2002;DHT22;1003;48.002;7.788;2023-06-10T06:27:31;24.70;99.90
2002;DHT22;1003;48.002;7.788;2023-06-10T06:30:00;24.50;99.90
2002;DHT22;1003;48.002;7.788;2023-06-10T06:32:27;24.80;99.90
2002;DHT22;1003;48.002;7.788;2023-06-10T06:34:54;24.80;99.90
2002;DHT22;1003;48.002;7.788;2023-06-10T06:37:22;24.80;99.90
2002;DHT22;1003;48.002;7.788;2023-06-10T06:39:50;24.90;99.90
2002;DHT22;1003;48.002;7.788;2023-06-10T06:42:17;25.00;99.90
2002;DHT22;1003;48.002;7.788;2023-06-10T06:44:45;25.40;99.90
2002;DHT22;1003;48.002;7.788;2023-06-10T06:47:14;25.40;99.90
2002;DHT22;1003;48.002;7.788;2023-06-10T06:49:43;25.70;99.90
2002;DHT22;1003;48.002;7.788;2023-06-10T06:52:12;26.00;99.90
2002;DHT22;1003;48.002;7.788;2023-06-10T06:54:39;26.10;99.90
2002;DHT22;1003;48.002;7.788;2023-06-10T06:57:06;26.10;99.90
2002;DHT22;1003;48.002;7.788;2023-06-10T06:59:33;26.20;99.90
2002;DHT22;1003;48.002;7.788;2023-06-10T07:02:00;26.20;99.90
2002;DHT22;1003;48.002;7.788;2023-06-10T07:04:29;26.10;99.90
2002;DHT22;1003;48.002;7.788;2023-06-10T07:06:56;25.90;99.90
2002;DHT22;1003;48.002;7.788;2023-06-10T07:09:23;26.30;99.90
2002;DHT22;1003;48.002;7.788;2023-06-10T07:11:50;26.40;99.90
2002;DHT22;1003;48.002;7.788;2023-06-10T07:14:17;26.30;99.90
2002;DHT22;1003;48.002;7.788;2023-06-10T07:16:44;26.10;99.90
2002;DHT22;1003;48.002;7.788;2023-06-10T07:19:13;26.50;99.90
2002;DHT22;1003;48.002;7.788;2023-06-10T07:21:42;26.60;99.90
2002;DHT22;1003;48.002;7.788;2023-06-10T07:24:09;26.70;99.90
2002;DHT22;1003;48.002;7.788;2023-06-10T07:26:36;26.60;99.90
2002;DHT22;1003;48.002;7.788;2023-06-10T07:29:03;26.70;99.90
2002;DHT22;1003;48.002;7.788;2023-06-10T07:31:30;26.80;99.90
2002;DHT22;1003;48.002;7.788;2023-06-10T07:33:57;26.70;99.90
2002;DHT22;1003;48.002;7.788;2023-06-10T07:36:24;26.40;99.90
2002;DHT22;1003;48.002;7.788;2023-06-10T07:38:54;26.50;99.90
2002;DHT22;1003;48.002;7.788;2023-06-10T07:41:22;26.70;99.90
2002;DHT22;1003;48.002;7.788;2023-06-10T07:43:51;27.00;99.90
2002;DHT22;1003;48.002;7.788;2023-06-10T07:46:20;27.10;99.90
2002;DHT22;1003;48.002;7.788;2023-06-10T07:48:47;27.30;99.90
2002;DHT22;1003;48.002;7.788;2023-06-10T07:51:15;27.10;99.90
2002;DHT22;1003;48.002;7.788;2023-06-10T07:53:43;27.20;99.90
2002;DHT22;1003;48.002;7.788;2023-06-10T07:56:11;27.60;99.90
2002;DHT22;1003;48.002;7.788;2023-06-10T07:58:38;27.80;99.90
2002;DHT22;1003;48.002;7.788;2023-06-10T08:01:05;27.90;99.90
2002;DHT22;1003;48.002;7.788;2023-06-10T08:03:33;27.90;99.90
2002;DHT22;1003;48.002;7.788;2023-06-10T08:06:00;28.20;99.90
2002;DHT22;1003;48.002;7.788;2023-06-10T08:08:27;28.30;99.90
2002;DHT22;1003;48.002;7.788;2023-06-10T08:10:54;28.30;99.90
2002;DHT22;1003;48.002;7.788;2023-06-10T08:13:23;28.30;99.90
2002;DHT22;1003;48.002;7.788;2023-06-10T08:15:50;27.90;99.90
2002;DHT22;1003;48.002;7.788;2023-06-10T08:18:19;27.80;99.90
2002;DHT22;1003;48.002;7.788;2023-06-10T08:20:46;27.60;99.90
2002;DHT22;1003;48.002;7.788;2023-06-10T08:23:14;27.40;99.90
2002;DHT22;1003;48.002;7.788;2023-06-10T08:25:41;27.30;99.90
2002;DHT22;1003;48.002;7.788;2023-06-10T08:28:08;27.20;99.90
2002;DHT22;1003;48.002;7.788;2023-06-10T08:30:37;27.20;99.90
2002;DHT22;1003;48.002;7.788;2023-06-10T08:33:04;27.40;99.90
2002;DHT22;1003;48.002;7.788;2023-06-10T08:35:31;27.30;99.90
2002;DHT22;1003;48.002;7.788;2023-06-10T08:37:58;27.50;99.90
2002;DHT22;1003;48.002;7.788;2023-06-10T08:40:26;27.70;99.90
2002;DHT22;1003;48.002;7.788;2023-06-10T08:42:59;27.70;99.90
2002;DHT22;1003;48.002;7.788;2023-06-10T08:45:32;27.60;99.90
2002;DHT22;1003;48.002;7.788;2023-06-10T08:48:04;26.90;99.90
2002;DHT22;1003;48.002;7.788;2023-06-10T08:50:34;26.60;99.90
2002;DHT22;1003;48.002;7.788;2023-06-10T08:53:05;26.60;99.90
2002;DHT22;1003;48.002;7.788;2023-06-10T08:55:35;26.70;99.90
2002;DHT22;1003;48.002;7.788;2023-06-10T08:58:04;26.70;99.90
2002;DHT22;1003;48.002;7.788;2023-06-10T09:00:32;26.80;99.90
2002;DHT22;1003;48.002;7.788;2023-06-10T09:03:01;26.90;99.90
2002;DHT22;1003;48.002;7.788;2023-06-10T09:05:33;27.20;99.90
2002;DHT22;1003;48.002;7.788;2023-06-10T09:08:02;27.20;99.90
2002;DHT22;1003;48.002;7.788;2023-06-10T09:10:30;27.20;99.90
2002;DHT22;1003;48.002;7.788;2023-06-10T09:12:57;27.50;99.90
2002;DHT22;1003;48.002;7.788;2023-06-10T09:15:24;27.40;99.90
2002;DHT22;1003;48.002;7.788;2023-06-10T09:17:52;27.30;99.90
2002;DHT22;1003;48.002;7.788;2023-06-10T09:20:25;27.40;99.90
2002;DHT22;1003;48.002;7.788;2023-06-10T09:22:53;27.00;99.90
2002;DHT22;1003;48.002;7.788;2023-06-10T09:25:34;26.60;99.90
2002;DHT22;1003;48.002;7.788;2023-06-10T09:28:04;26.70;99.90
2002;DHT22;1003;48.002;7.788;2023-06-10T09:30:32;26.60;99.90
2002;DHT22;1003;48.002;7.788;2023-06-10T09:33:01;26.80;99.90
2002;DHT22;1003;48.002;7.788;2023-06-10T09:35:31;27.10;99.90
2002;DHT22;1003;48.002;7.788;2023-06-10T09:38:00;27.20;99.90
2002;DHT22;1003;48.002;7.788;2023-06-10T09:40:27;27.10;99.90
2002;DHT22;1003;48.002;7.788;2023-06-10T09:42:56;27.00;99.90
2002;DHT22;1003;48.002;7.788;2023-06-10T09:45:29;27.10;99.90
2002;DHT22;1003;48.002;7.788;2023-06-10T09:47:57;27.30;99.90
2002;DHT22;1003;48.002;7.788;2023-06-10T09:50:26;27.30;99.90
2002;DHT22;1003;48.002;7.788;2023-06-10T09:52:53;27.20;99.90
2002;DHT22;1003;48.002;7.788;2023-06-10T09:55:22;27.10;99.90
2002;DHT22;1003;48.002;7.788;2023-06-10T09:57:53;27.30;99.90
2002;DHT22;1003;48.002;7.788;2023-06-10T10:00:22;27.30;99.90
2002;DHT22;1003;48.002;7.788;2023-06-10T10:02:52;27.20;99.90
2002;DHT22;1003;48.002;7.788;2023-06-10T10:05:21;26.80;99.90
2002;DHT22;1003;48.002;7.788;2023-06-10T10:07:49;27.00;99.90
2002;DHT22;1003;48.002;7.788;2023-06-10T10:10:18;27.20;99.90
2002;DHT22;1003;48.002;7.788;2023-06-10T10:12:52;27.00;99.90
2002;DHT22;1003;48.002;7.788;2023-06-10T10:15:24;26.90;99.90
2002;DHT22;1003;48.002;7.788;2023-06-10T10:18:00;26.90;99.90
2002;DHT22;1003;48.002;7.788;2023-06-10T10:20:33;27.00;99.90
2002;DHT22;1003;48.002;7.788;2023-06-10T10:23:04;27.20;99.90
2002;DHT22;1003;48.002;7.788;2023-06-10T10:25:37;27.20;99.90
2002;DHT22;1003;48.002;7.788;2023-06-10T10:28:09;27.50;99.90
2002;DHT22;1003;48.002;7.788;2023-06-10T10:30:40;27.60;99.90
2002;DHT22;1003;48.002;7.788;2023-06-10T10:33:12;27.20;99.90
2002;DHT22;1003;48.002;7.788;2023-06-10T10:35:43;27.10;99.90
2002;DHT22;1003;48.002;7.788;2023-06-10T10:38:12;27.20;99.90
2002;DHT22;1003;48.002;7.788;2023-06-10T10:40:39;27.20;99.90
2002;DHT22;1003;48.002;7.788;2023-06-10T10:43:10;27.60;99.90
2002;DHT22;1003;48.002;7.788;2023-06-10T10:45:38;27.50;99.90
2002;DHT22;1003;48.002;7.788;2023-06-10T10:48:07;27.40;99.90
2002;DHT22;1003;48.002;7.788;2023-06-10T10:50:37;27.10;99.90
2002;DHT22;1003;48.002;7.788;2023-06-10T10:53:06;27.00;99.90
2002;DHT22;1003;48.002;7.788;2023-06-10T10:55:33;27.10;99.90
2002;DHT22;1003;48.002;7.788;2023-06-10T10:58:03;27.50;99.90
2002;DHT22;1003;48.002;7.788;2023-06-10T11:00:35;27.70;99.90
2002;DHT22;1003;48.002;7.788;2023-06-10T11:03:06;27.50;99.90
2002;DHT22;1003;48.002;7.788;2023-06-10T11:05:39;27.50;99.90
2002;DHT22;1003;48.002;7.788;2023-06-10T11:08:10;27.60;99.90
2002;DHT22;1003;48.002;7.788;2023-06-10T11:10:50;27.50;99.90
2002;DHT22;1003;48.002;7.788;2023-06-10T11:13:20;27.50;99.90
2002;DHT22;1003;48.002;7.788;2023-06-10T11:15:50;27.30;99.90
2002;DHT22;1003;48.002;7.788;2023-06-10T11:18:22;27.40;99.90
2002;DHT22;1003;48.002;7.788;2023-06-10T11:20:52;27.40;99.90
2002;DHT22;1003;48.002;7.788;2023-06-10T11:23:40;27.40;99.90
2002;DHT22;1003;48.002;7.788;2023-06-10T11:26:30;27.60;99.90
2002;DHT22;1003;48.002;7.788;2023-06-10T11:29:03;28.10;99.90
2002;DHT22;1003;48.002;7.788;2023-06-10T11:31:33;28.20;99.90
2002;DHT22;1003;48.002;7.788;2023-06-10T11:34:05;28.20;99.90
2002;DHT22;1003;48.002;7.788;2023-06-10T11:36:34;28.10;99.90
2002;DHT22;1003;48.002;7.788;2023-06-10T11:39:06;28.10;99.90
2002;DHT22;1003;48.002;7.788;2023-06-10T11:41:34;27.70;99.90
2002;DHT22;1003;48.002;7.788;2023-06-10T11:44:03;27.40;99.90
2002;DHT22;1003;48.002;7.788;2023-06-10T11:46:35;27.30;99.90
2002;DHT22;1003;48.002;7.788;2023-06-10T11:49:03;27.40;99.90
2002;DHT22;1003;48.002;7.788;2023-06-10T11:51:33;27.30;99.90
2002;DHT22;1003;48.002;7.788;2023-06-10T11:54:02;27.10;99.90
2002;DHT22;1003;48.002;7.788;2023-06-10T11:56:31;27.20;99.90
2002;DHT22;1003;48.002;7.788;2023-06-10T11:59:00;27.30;99.90
2002;DHT22;1003;48.002;7.788;2023-06-10T12:01:31;27.50;99.90
2002;DHT22;1003;48.002;7.788;2023-06-10T12:04:05;27.50;99.90
2002;DHT22;1003;48.002;7.788;2023-06-10T12:06:41;27.70;99.90
2002;DHT22;1003;48.002;7.788;2023-06-10T12:09:14;28.20;99.90
2002;DHT22;1003;48.002;7.788;2023-06-10T12:11:42;28.40;99.90
2002;DHT22;1003;48.002;7.788;2023-06-10T12:14:10;28.30;99.90
2002;DHT22;1003;48.002;7.788;2023-06-10T12:16:37;28.20;99.90
2002;DHT22;1003;48.002;7.788;2023-06-10T12:19:06;28.40;99.90
2002;DHT22;1003;48.002;7.788;2023-06-10T12:21:34;28.60;99.90
2002;DHT22;1003;48.002;7.788;2023-06-10T12:24:06;28.70;99.90
2002;DHT22;1003;48.002;7.788;2023-06-10T12:26:38;28.80;99.90
2002;DHT22;1003;48.002;7.788;2023-06-10T12:29:21;28.80;99.90
2002;DHT22;1003;48.002;7.788;2023-06-10T12:31:56;29.10;99.90
2002;DHT22;1003;48.002;7.788;2023-06-10T12:34:36;28.70;99.90
2002;DHT22;1003;48.002;7.788;2023-06-10T12:37:05;28.90;99.90
2002;DHT22;1003;48.002;7.788;2023-06-10T12:39:33;28.70;99.90
2002;DHT22;1003;48.002;7.788;2023-06-10T12:42:00;28.70;99.90
2002;DHT22;1003;48.002;7.788;2023-06-10T12:44:35;28.50;99.90
2002;DHT22;1003;48.002;7.788;2023-06-10T12:47:08;28.40;99.90
2002;DHT22;1003;48.002;7.788;2023-06-10T12:49:39;28.30;99.90
2002;DHT22;1003;48.002;7.788;2023-06-10T12:52:06;28.30;99.90
2002;DHT22;1003;48.002;7.788;2023-06-10T12:54:34;28.40;99.90
2002;DHT22;1003;48.002;7.788;2023-06-10T12:57:02;28.30;99.90
2002;DHT22;1003;48.002;7.788;2023-06-10T12:59:29;28.30;99.90
2002;DHT22;1003;48.002;7.788;2023-06-10T13:01:58;28.40;99.90
2002;DHT22;1003;48.002;7.788;2023-06-10T13:04:25;28.50;99.90
2002;DHT22;1003;48.002;7.788;2023-06-10T13:06:53;28.60;99.90
2002;DHT22;1003;48.002;7.788;2023-06-10T13:09:21;28.90;99.90
2002;DHT22;1003;48.002;7.788;2023-06-10T13:11:48;29.30;99.90
2002;DHT22;1003;48.002;7.788;2023-06-10T13:14:15;29.60;99.90
2002;DHT22;1003;48.002;7.788;2023-06-10T13:16:43;29.80;99.90
2002;DHT22;1003;48.002;7.788;2023-06-10T13:19:12;29.70;99.90
2002;DHT22;1003;48.002;7.788;2023-06-10T13:21:39;29.80;99.90
2002;DHT22;1003;48.002;7.788;2023-06-10T13:24:07;29.80;99.90
2002;DHT22;1003;48.002;7.788;2023-06-10T13:26:34;29.30;99.90
2002;DHT22;1003;48.002;7.788;2023-06-10T13:29:01;29.10;99.90
2002;DHT22;1003;48.002;7.788;2023-06-10T13:31:29;29.20;99.90
2002;DHT22;1003;48.002;7.788;2023-06-10T13:33:57;29.30;99.90
2002;DHT22;1003;48.002;7.788;2023-06-10T13:36:24;29.10;99.90
2002;DHT22;1003;48.002;7.788;2023-06-10T13:38:51;28.80;99.90
2002;DHT22;1003;48.002;7.788;2023-06-10T13:41:20;28.70;99.90
2002;DHT22;1003;48.002;7.788;2023-06-10T13:43:47;28.50;99.90
2002;DHT22;1003;48.002;7.788;2023-06-10T13:46:14;28.10;99.90
2002;DHT22;1003;48.002;7.788;2023-06-10T13:48:41;27.90;99.90
2002;DHT22;1003;48.002;7.788;2023-06-10T13:51:08;27.90;99.90
2002;DHT22;1003;48.002;7.788;2023-06-10T13:53:37;28.10;99.90
2002;DHT22;1003;48.002;7.788;2023-06-10T13:56:04;28.40;99.90
2002;DHT22;1003;48.002;7.788;2023-06-10T13:58:32;28.20;99.90
2002;DHT22;1003;48.002;7.788;2023-06-10T14:01:04;28.60;99.90
2002;DHT22;1003;48.002;7.788;2023-06-10T14:03:31;28.70;99.90
2002;DHT22;1003;48.002;7.788;2023-06-10T14:05:58;28.70;99.90
2002;DHT22;1003;48.002;7.788;2023-06-10T14:08:26;28.50;99.90
2002;DHT22;1003;48.002;7.788;2023-06-10T14:10:53;28.30;99.90
2002;DHT22;1003;48.002;7.788;2023-06-10T14:13:20;28.20;99.90
2002;DHT22;1003;48.002;7.788;2023-06-10T14:15:48;28.20;99.90
2002;DHT22;1003;48.002;7.788;2023-06-10T14:18:15;28.40;99.90
2002;DHT22;1003;48.002;7.788;2023-06-10T14:20:42;28.40;99.90
2002;DHT22;1003;48.002;7.788;2023-06-10T14:23:09;28.70;99.90
2002;DHT22;1003;48.002;7.788;2023-06-10T14:25:37;29.00;99.90
2002;DHT22;1003;48.002;7.788;2023-06-10T14:28:04;29.10;99.90
2002;DHT22;1003;48.002;7.788;2023-06-10T14:30:31;29.10;99.90
2002;DHT22;1003;48.002;7.788;2023-06-10T14:32:59;29.20;99.90
2002;DHT22;1003;48.002;7.788;2023-06-10T14:35:27;29.00;99.90
2002;DHT22;1003;48.002;7.788;2023-06-10T14:37:55;29.00;99.90
2002;DHT22;1003;48.002;7.788;2023-06-10T14:40:22;29.10;99.90
2002;DHT22;1003;48.002;7.788;2023-06-10T14:42:50;29.30;99.90
2002;DHT22;1003;48.002;7.788;2023-06-10T14:45:17;29.30;99.90
2002;DHT22;1003;48.002;7.788;2023-06-10T14:47:44;29.30;99.90
2002;DHT22;1003;48.002;7.788;2023-06-10T14:50:14;29.00;99.90
2002;DHT22;1003;48.002;7.788;2023-06-10T14:52:41;29.20;99.90
2002;DHT22;1003;48.002;7.788;2023-06-10T14:55:08;29.10;99.90
2002;DHT22;1003;48.002;7.788;2023-06-10T14:57:35;28.90;99.90
2002;DHT22;1003;48.002;7.788;2023-06-10T15:00:03;28.90;99.90
2002;DHT22;1003;48.002;7.788;2023-06-10T15:02:31;28.80;99.90
2002;DHT22;1003;48.002;7.788;2023-06-10T15:04:58;28.80;99.90
2002;DHT22;1003;48.002;7.788;2023-06-10T15:07:26;28.80;99.90
2002;DHT22;1003;48.002;7.788;2023-06-10T15:09:53;28.80;99.90
2002;DHT22;1003;48.002;7.788;2023-06-10T15:12:20;29.10;99.90
2002;DHT22;1003;48.002;7.788;2023-06-10T15:14:47;29.40;99.90
2002;DHT22;1003;48.002;7.788;2023-06-10T15:17:14;29.30;99.90
2002;DHT22;1003;48.002;7.788;2023-06-10T15:19:41;29.40;99.90
2002;DHT22;1003;48.002;7.788;2023-06-10T15:22:08;29.60;99.90
2002;DHT22;1003;48.002;7.788;2023-06-10T15:24:38;29.60;99.90
2002;DHT22;1003;48.002;7.788;2023-06-10T15:27:05;29.30;99.90
2002;DHT22;1003;48.002;7.788;2023-06-10T15:29:32;29.30;99.90
2002;DHT22;1003;48.002;7.788;2023-06-10T15:31:59;29.10;99.90
2002;DHT22;1003;48.002;7.788;2023-06-10T15:34:26;29.10;99.90
2002;DHT22;1003;48.002;7.788;2023-06-10T15:36:54;28.80;99.90
2002;DHT22;1003;48.002;7.788;2023-06-10T15:39:21;28.80;99.90
2002;DHT22;1003;48.002;7.788;2023-06-10T15:41:51;28.70;99.90
2002;DHT22;1003;48.002;7.788;2023-06-10T15:44:18;28.80;99.90
2002;DHT22;1003;48.002;7.788;2023-06-10T15:46:45;28.70;99.90
2002;DHT22;1003;48.002;7.788;2023-06-10T15:49:12;28.60;99.90
2002;DHT22;1003;48.002;7.788;2023-06-10T15:51:39;28.70;99.90
2002;DHT22;1003;48.002;7.788;2023-06-10T15:54:06;28.60;99.90
2002;DHT22;1003;48.002;7.788;2023-06-10T15:56:33;28.60;99.90
2002;DHT22;1003;48.002;7.788;2023-06-10T15:59:02;28.50;99.90
2002;DHT22;1003;48.002;7.788;2023-06-10T16:01:30;28.50;99.90
2002;DHT22;1003;48.002;7.788;2023-06-10T16:03:57;28.40;99.90
2002;DHT22;1003;48.002;7.788;2023-06-10T16:06:24;28.40;99.90
2002;DHT22;1003;48.002;7.788;2023-06-10T16:08:51;28.40;99.90
2002;DHT22;1003;48.002;7.788;2023-06-10T16:11:18;28.40;99.90